createdAt,value
2022-08-24T04:02:33.033Z,100491.14
2022-08-24T04:05:04.465Z,100496.38
2022-08-24T04:07:37.737Z,100493.79
2022-08-24T04:10:07.432Z,100495.85
2022-08-24T04:12:35.971Z,100498.40
2022-08-24T04:15:08.296Z,100497.61
2022-08-24T04:17:36.951Z,100498.06
2022-08-24T04:20:11.166Z,100501.27
2022-08-24T04:22:44.223Z,100499.61
2022-08-24T04:25:15.219Z,100501.75
2022-08-24T04:27:44.218Z,100504.52
2022-08-24T04:30:16.761Z,100511.34
2022-08-24T04:33:07.599Z,100514.30
2022-08-24T04:47:22.340Z,100523.15
2022-08-24T04:49:52.736Z,100521.95
2022-08-24T04:52:23.081Z,100520.10
2022-08-24T04:54:52.663Z,100520.86
2022-08-24T04:57:23.944Z,100523.27
2022-08-24T04:59:57.020Z,100525.42
2022-08-24T05:02:31.038Z,100528.50
2022-08-24T05:05:02.625Z,100527.92
2022-08-24T05:07:32.064Z,100528.88
2022-08-24T05:10:01.400Z,100528.95
2022-08-24T05:12:33.142Z,100534.90
2022-08-24T05:15:04.919Z,100542.63
2022-08-24T05:17:36.997Z,100547.15
2022-08-24T05:20:10.816Z,100550.13
2022-08-24T05:22:40.249Z,100549.25
2022-08-24T05:25:09.869Z,100555.40
2022-08-24T05:27:39.005Z,100554.73
2022-08-24T05:30:09.779Z,100558.59
2022-08-24T05:32:40.348Z,100563.58
2022-08-24T05:35:09.830Z,100560.50
2022-08-24T05:37:40.501Z,100556.96
2022-08-24T05:40:19.939Z,100557.08
2022-08-24T05:42:52.251Z,100555.73
2022-08-24T05:45:21.989Z,100549.22
2022-08-24T05:47:52.280Z,100553.70
2022-08-24T05:50:43.207Z,100557.27
2022-08-24T05:53:16.334Z,100560.98
2022-08-24T05:55:46.085Z,100562.61
2022-08-24T05:58:22.999Z,100566.14
2022-08-24T06:01:09.500Z,100563.90
2022-08-24T06:03:41.240Z,100566.04
2022-08-24T06:06:12.641Z,100569.91
2022-08-24T06:08:46.511Z,100573.84
2022-08-24T06:11:30.584Z,100569.86
2022-08-24T06:14:07.266Z,100568.70
2022-08-24T06:16:43.957Z,100565.67
2022-08-24T06:19:16.881Z,100564.46
2022-08-24T06:21:49.865Z,100565.02
2022-08-24T06:24:20.164Z,100566.75
2022-08-24T06:27:08.089Z,100563.54
2022-08-24T06:29:37.799Z,100561.50
2022-08-24T06:32:26.380Z,100561.75
2022-08-24T06:34:58.916Z,100557.71
2022-08-24T06:37:33.877Z,100554.86
2022-08-24T06:40:05.062Z,100558.36
2022-08-24T06:42:37.126Z,100557.92
2022-08-24T06:45:18.986Z,100560.79
2022-08-24T06:47:49.456Z,100559.02
2022-08-24T06:50:19.433Z,100555.48
2022-08-24T06:52:54.666Z,100557.10
2022-08-24T06:55:25.751Z,100558.39
2022-08-24T06:57:56.150Z,100563.78
2022-08-24T07:00:25.534Z,100562.13
2022-08-24T07:02:54.690Z,100565.41
2022-08-24T07:05:23.863Z,100564.22
2022-08-24T07:08:00.695Z,100567.41
2022-08-24T07:10:31.091Z,100569.48
2022-08-24T07:13:00.182Z,100570.22
2022-08-24T07:15:29.377Z,100567.00
2022-08-24T07:18:16.351Z,100565.39
2022-08-24T07:20:49.620Z,100564.84
2022-08-24T07:23:41.506Z,100563.23
2022-08-24T07:26:21.622Z,100557.00
2022-08-24T07:29:05.658Z,100557.58
2022-08-24T07:31:44.502Z,100561.32
2022-08-24T07:34:34.438Z,100562.96
2022-08-24T07:37:13.087Z,100560.71
2022-08-24T07:39:47.890Z,100558.52
2022-08-24T07:42:25.593Z,100560.46
2022-08-24T07:44:59.277Z,100555.48
2022-08-24T07:47:38.158Z,100557.52
2022-08-24T07:50:20.064Z,100555.77
2022-08-24T07:52:50.298Z,100550.73
2022-08-24T07:55:19.498Z,100549.61
2022-08-24T07:57:48.517Z,100547.80
2022-08-24T08:00:21.855Z,100544.86
2022-08-24T08:02:55.070Z,100547.75
2022-08-24T08:05:25.220Z,100549.39
2022-08-24T08:07:55.942Z,100555.04
2022-08-24T08:10:25.768Z,100553.35
2022-08-24T08:12:54.713Z,100554.97
2022-08-24T08:15:23.835Z,100553.85
2022-08-24T08:18:04.832Z,100560.86
2022-08-24T08:20:35.401Z,100563.70
2022-08-24T08:23:23.290Z,100562.61
2022-08-24T08:26:21.068Z,100566.92
2022-08-24T08:29:06.737Z,100566.87
2022-08-24T08:31:38.648Z,100560.05
2022-08-24T08:34:08.824Z,100563.88
2022-08-24T08:36:40.425Z,100564.11
2022-08-24T08:39:13.190Z,100565.11
2022-08-24T08:42:00.587Z,100563.21
2022-08-24T08:44:50.862Z,100565.91
2022-08-24T08:47:47.567Z,100569.98
2022-08-24T08:50:28.966Z,100573.92
2022-08-24T08:53:16.349Z,100574.17
2022-08-24T08:55:54.010Z,100575.85
2022-08-24T08:58:57.082Z,100577.77
2022-08-24T09:01:58.281Z,100581.84
2022-08-24T09:04:53.183Z,100581.85
2022-08-24T09:07:37.577Z,100582.65
2022-08-24T09:10:19.122Z,100583.89
2022-08-24T09:13:05.992Z,100584.33
2022-08-24T09:16:00.127Z,100580.33
2022-08-24T09:19:03.557Z,100583.91
2022-08-24T09:21:58.643Z,100586.55
2022-08-24T09:24:46.053Z,100587.05
2022-08-24T09:27:53.684Z,100592.54
2022-08-24T09:30:26.695Z,100590.48
2022-08-24T09:33:03.220Z,100590.67
2022-08-24T09:35:39.842Z,100591.45
2022-08-24T09:38:37.109Z,100592.15
2022-08-24T09:41:26.606Z,100590.11
2022-08-24T09:44:35.822Z,100588.35
2022-08-24T09:47:23.527Z,100593.77
2022-08-24T09:50:03.457Z,100591.34
2022-08-24T09:53:03.935Z,100593.41
2022-08-24T09:55:51.848Z,100597.60
2022-08-24T09:58:36.125Z,100601.56
2022-08-24T10:01:15.794Z,100596.08
2022-08-24T10:03:57.517Z,100594.88
2022-08-24T10:06:48.767Z,100592.91
2022-08-24T10:09:39.326Z,100589.89
2022-08-24T10:12:29.377Z,100590.51
2022-08-24T10:15:11.731Z,100588.42
2022-08-24T10:18:18.367Z,100586.44
2022-08-24T10:21:18.215Z,100590.02
2022-08-24T10:23:55.942Z,100587.20
2022-08-24T10:26:51.376Z,100585.89
2022-08-24T10:29:38.801Z,100585.20
2022-08-24T10:32:41.826Z,100583.23
2022-08-24T10:35:18.072Z,100583.40
2022-08-24T10:38:41.149Z,100579.35
2022-08-24T10:41:32.819Z,100583.44
2022-08-24T10:44:27.008Z,100585.96
2022-08-24T10:47:00.306Z,100588.51
2022-08-24T10:49:38.274Z,100585.23
2022-08-24T10:52:55.204Z,100581.70
2022-08-24T10:55:34.136Z,100584.36
2022-08-24T10:58:40.373Z,100587.03
2022-08-24T11:01:20.627Z,100583.72
2022-08-24T11:03:56.032Z,100582.78
2022-08-24T11:06:32.163Z,100578.86
2022-08-24T11:09:06.898Z,100576.72
2022-08-24T11:11:42.420Z,100578.17
2022-08-24T11:14:17.840Z,100579.73
2022-08-24T11:16:48.106Z,100582.17
2022-08-24T11:19:35.501Z,100582.08
2022-08-24T11:22:26.403Z,100585.56
2022-08-24T11:25:01.879Z,100585.85
2022-08-24T11:27:52.666Z,100589.25
2022-08-24T11:30:22.865Z,100589.89
2022-08-24T11:32:57.185Z,100588.96
2022-08-24T11:35:34.696Z,100590.58
2022-08-24T11:38:20.671Z,100592.73
2022-08-24T11:41:03.328Z,100596.44
2022-08-24T11:44:02.705Z,100592.89
2022-08-24T11:46:47.591Z,100597.89
2022-08-24T11:50:03.866Z,100598.60
2022-08-24T11:53:01.367Z,100598.55
2022-08-24T11:55:47.266Z,100604.92
2022-08-24T11:58:44.257Z,100602.05
2022-08-24T12:01:36.046Z,100602.55
2022-08-24T12:04:29.204Z,100602.36
2022-08-24T12:07:19.794Z,100599.89
2022-08-24T12:09:55.252Z,100602.10
2022-08-24T12:12:42.707Z,100603.80
2022-08-24T12:15:59.500Z,100600.63
2022-08-24T12:18:46.990Z,100598.51
2022-08-24T12:21:22.630Z,100593.94
2022-08-24T12:24:06.626Z,100590.64
2022-08-24T12:26:44.518Z,100593.21
2022-08-24T12:29:24.011Z,100595.99
2022-08-24T12:32:02.021Z,100596.46
2022-08-24T12:35:04.421Z,100595.52
2022-08-24T12:37:44.840Z,100595.91
2022-08-24T12:40:29.581Z,100594.69
2022-08-24T12:43:23.837Z,100598.95
2022-08-24T12:45:56.891Z,100594.82
2022-08-24T12:48:34.454Z,100597.81
2022-08-24T12:51:30.714Z,100600.20
2022-08-24T12:54:21.398Z,100599.34
2022-08-24T12:57:27.298Z,100598.79
2022-08-24T13:00:03.619Z,100595.81
2022-08-24T13:02:48.079Z,100595.76
2022-08-24T13:05:21.728Z,100593.04
2022-08-24T13:07:52.852Z,100596.48
2022-08-24T13:10:25.450Z,100598.46
2022-08-24T13:13:09.013Z,100598.17
2022-08-24T13:15:38.303Z,100601.34
2022-08-24T13:18:10.886Z,100602.65
2022-08-24T13:20:43.760Z,100605.25
2022-08-24T13:23:30.670Z,100608.08
2022-08-24T13:26:18.445Z,100605.14
2022-08-24T13:28:56.600Z,100604.80
2022-08-24T13:31:51.695Z,100601.61
2022-08-24T13:34:25.779Z,100598.10
2022-08-24T13:37:21.275Z,100598.64
2022-08-24T13:40:10.759Z,100600.41
2022-08-24T13:43:22.987Z,100604.08
2022-08-24T13:46:13.327Z,100603.20
2022-08-24T13:49:13.250Z,100604.65
2022-08-24T13:52:08.365Z,100605.10
2022-08-24T13:54:55.697Z,100603.25
2022-08-24T13:58:03.151Z,100601.58
2022-08-24T14:00:44.211Z,100598.64
2022-08-24T14:03:19.138Z,100601.09
2022-08-24T14:06:20.653Z,100596.56
2022-08-24T14:09:18.575Z,100597.20
2022-08-24T14:12:21.551Z,100600.27
2022-08-24T14:15:12.531Z,100601.83
2022-08-24T14:17:55.856Z,100607.88
2022-08-24T14:20:30.969Z,100606.31
2022-08-24T14:22:59.033Z,100601.55
2022-08-24T14:25:34.374Z,100599.41
2022-08-24T14:28:05.941Z,100595.91
2022-08-24T14:30:36.135Z,100595.52
2022-08-24T14:33:20.415Z,100595.80
2022-08-24T14:35:53.120Z,100595.44
2022-08-24T14:38:25.115Z,100592.89
2022-08-24T14:41:18.958Z,100591.21
2022-08-24T14:44:11.765Z,100589.28
2022-08-24T14:47:08.825Z,100587.46
2022-08-24T14:49:53.563Z,100583.80
2022-08-24T14:52:46.887Z,100582.27
2022-08-24T14:55:34.532Z,100583.55
2022-08-24T14:58:21.411Z,100582.92
2022-08-24T15:01:36.271Z,100580.37
2022-08-24T15:04:14.570Z,100579.42
2022-08-24T15:06:52.275Z,100578.14
2022-08-24T15:09:28.203Z,100579.98
2022-08-24T15:12:33.230Z,100580.93
2022-08-24T15:15:05.473Z,100582.59
2022-08-24T15:18:15.151Z,100581.27
2022-08-24T15:20:47.372Z,100583.42
2022-08-24T15:23:21.371Z,100582.59
2022-08-24T15:25:53.322Z,100591.13
2022-08-24T15:28:31.906Z,100593.29
2022-08-24T15:31:08.609Z,100591.97
2022-08-24T15:33:53.966Z,100594.06
2022-08-24T15:36:23.104Z,100595.45
2022-08-24T15:38:52.614Z,100590.52
2022-08-24T15:41:32.143Z,100587.48
2022-08-24T15:44:07.535Z,100586.05
2022-08-24T15:46:45.046Z,100586.15
2022-08-24T15:49:29.427Z,100587.63
2022-08-24T15:52:03.062Z,100585.60
2022-08-24T15:54:38.196Z,100586.59
2022-08-24T15:57:19.715Z,100583.42
2022-08-24T15:59:51.433Z,100582.23
2022-08-24T16:02:31.046Z,100582.06
2022-08-24T16:05:26.189Z,100583.88
2022-08-24T16:08:05.224Z,100584.08
2022-08-24T16:10:57.987Z,100585.94
2022-08-24T16:13:30.864Z,100591.52
2022-08-24T16:16:13.658Z,100596.26
2022-08-24T16:18:56.533Z,100596.81
2022-08-24T16:21:25.796Z,100595.33
2022-08-24T16:24:24.059Z,100600.06
2022-08-24T16:27:03.529Z,100601.27
2022-08-24T16:29:35.346Z,100605.39
2022-08-24T16:32:33.517Z,100604.36
2022-08-24T16:35:21.633Z,100605.29
2022-08-24T16:37:53.281Z,100609.36
2022-08-24T16:40:23.064Z,100612.39
2022-08-24T16:42:52.758Z,100611.38
2022-08-24T16:45:22.471Z,100609.54
2022-08-24T16:47:51.616Z,100613.26
2022-08-24T16:50:21.361Z,100615.82
2022-08-24T16:52:51.622Z,100623.15
2022-08-24T16:55:23.288Z,100627.48
2022-08-24T16:57:51.597Z,100625.27
2022-08-24T17:00:22.410Z,100630.27
2022-08-24T17:02:51.156Z,100631.36
2022-08-24T17:05:20.205Z,100634.95
2022-08-24T17:07:50.566Z,100641.14
2022-08-24T17:10:22.168Z,100642.70
2022-08-24T17:12:51.246Z,100647.48
2022-08-24T17:15:20.885Z,100648.23
2022-08-24T17:18:01.948Z,100651.38
2022-08-24T17:20:32.322Z,100660.38
2022-08-24T17:23:01.686Z,100665.52
2022-08-24T17:25:30.844Z,100668.06
2022-08-24T17:28:00.924Z,100667.44
2022-08-24T17:30:30.948Z,100668.30
2022-08-24T17:33:00.889Z,100670.04
2022-08-24T17:35:30.445Z,100670.77
2022-08-24T17:38:00.345Z,100669.65
2022-08-24T17:40:32.283Z,100672.50
2022-08-24T17:43:01.273Z,100674.36
2022-08-24T17:45:30.050Z,100678.55
2022-08-24T17:47:58.629Z,100679.91
2022-08-24T17:50:28.984Z,100681.38
2022-08-24T17:53:06.728Z,100682.13
2022-08-24T17:55:36.071Z,100683.10
2022-08-24T17:58:04.550Z,100688.59
2022-08-24T18:00:33.556Z,100692.16
2022-08-24T18:03:02.045Z,100692.54
2022-08-24T18:05:33.414Z,100692.69
2022-08-24T18:08:02.666Z,100689.80
2022-08-24T18:10:34.872Z,100692.45
2022-08-24T18:13:04.053Z,100694.13
2022-08-24T18:15:36.297Z,100697.77
2022-08-24T18:18:09.806Z,100700.08
2022-08-24T18:20:41.104Z,100699.52
2022-08-24T18:23:11.251Z,100700.55
2022-08-24T18:29:21.978Z,100706.34
2022-08-24T18:31:51.023Z,100707.48
2022-08-24T18:34:21.893Z,100711.64
2022-08-24T18:36:50.893Z,100711.29
2022-08-24T18:39:19.669Z,100713.23
2022-08-24T18:41:49.793Z,100715.06
2022-08-24T18:44:20.913Z,100715.16
2022-08-24T18:46:50.284Z,100716.65
2022-08-24T18:49:20.785Z,100718.81
2022-08-24T18:51:50.454Z,100720.08
2022-08-24T18:54:26.133Z,100717.45
2022-08-24T18:56:55.237Z,100717.55
2022-08-24T18:59:23.602Z,100718.02
2022-08-24T19:02:12.474Z,100720.09
2022-08-24T19:04:48.234Z,100722.41
2022-08-24T19:07:17.351Z,100728.09
2022-08-24T19:09:46.088Z,100727.91
2022-08-24T19:12:15.250Z,100725.39
2022-08-24T19:14:46.479Z,100721.82
2022-08-24T19:17:16.409Z,100722.79
2022-08-24T19:19:46.702Z,100724.89
2022-08-24T19:22:17.010Z,100730.41
2022-08-24T19:24:47.353Z,100731.10
2022-08-24T19:27:16.963Z,100734.90
2022-08-24T19:29:56.282Z,100731.37
2022-08-24T19:32:28.648Z,100736.59
2022-08-24T19:34:59.042Z,100736.42
2022-08-24T19:37:27.853Z,100739.37
2022-08-24T19:39:58.588Z,100738.05
2022-08-24T19:42:28.593Z,100733.33
2022-08-24T19:45:19.414Z,100733.92
2022-08-24T19:47:47.788Z,100735.91
2022-08-24T19:50:21.209Z,100734.81
2022-08-24T19:52:50.061Z,100733.65
2022-08-24T19:55:18.954Z,100736.56
2022-08-24T19:57:49.911Z,100740.98
2022-08-24T20:00:18.400Z,100741.56
2022-08-24T20:02:53.427Z,100742.12
2022-08-24T20:05:26.390Z,100743.11
2022-08-24T20:07:56.389Z,100741.64
2022-08-24T20:10:25.516Z,100737.84
2022-08-24T20:12:54.211Z,100741.75
2022-08-24T20:15:25.749Z,100737.45
2022-08-24T20:17:57.108Z,100737.06
2022-08-24T20:20:28.346Z,100734.86
2022-08-24T20:22:57.229Z,100733.05
2022-08-24T20:25:25.526Z,100732.52
2022-08-24T20:28:18.524Z,100734.80
2022-08-24T20:30:44.953Z,100733.20
2022-08-24T20:33:16.917Z,100730.60
2022-08-24T20:35:45.959Z,100728.75
2022-08-24T20:38:16.193Z,100731.31
2022-08-24T20:40:45.768Z,100728.34
2022-08-24T20:43:14.812Z,100727.88
2022-08-24T20:45:43.382Z,100729.22
2022-08-24T20:48:13.733Z,100733.05
2022-08-24T20:50:45.960Z,100741.64
2022-08-24T20:53:15.138Z,100739.40
2022-08-24T20:55:44.042Z,100736.29
2022-08-24T20:58:16.300Z,100742.73
2022-08-24T21:00:46.526Z,100749.17
2022-08-24T21:03:16.774Z,100745.22
2022-08-24T21:05:47.522Z,100748.56
2022-08-24T21:08:16.208Z,100756.53
2022-08-24T21:10:45.397Z,100756.78
2022-08-24T21:13:13.768Z,100754.94
2022-08-24T21:15:42.918Z,100756.39
2022-08-24T21:18:12.579Z,100765.40
2022-08-24T21:20:49.251Z,100769.77
2022-08-24T21:23:34.344Z,100770.45
2022-08-24T21:26:05.336Z,100776.57
2022-08-24T21:28:35.871Z,100774.48
2022-08-24T21:31:06.345Z,100776.86
2022-08-24T21:33:55.602Z,100777.70
2022-08-24T21:36:40.111Z,100774.75
2022-08-24T21:39:11.165Z,100774.86
2022-08-24T21:41:45.533Z,100774.16
2022-08-24T21:44:14.851Z,100779.60
2022-08-24T21:46:43.783Z,100780.66
2022-08-24T21:49:15.631Z,100783.77
2022-08-24T21:51:44.544Z,100789.77
2022-08-24T21:59:04.768Z,100853.05
2022-08-24T22:06:17.072Z,100868.45
2022-08-24T22:10:44.305Z,100883.77
2022-08-24T22:44:33.427Z,100859.39
2022-08-24T22:47:32.394Z,100859.98
2022-08-24T22:50:06.060Z,100863.64
2022-08-24T22:52:35.300Z,100862.84
2022-08-24T22:55:05.106Z,100864.89
2022-08-24T22:57:34.286Z,100858.09
